Time;durP1;ratioP1;P1;durP2;ratioP2;P2;SDS_P1;SDS_P2;PMS_P1;PMS_P2;Temp;Humidity;BMP_temperature;BMP_pressure;BME280_temperature;BME280_humidity;BME280_pressure;Samples;Min_cycle;Max_cycle;Signal;HPM_P1;HPM_P2
2022/01/17 00:00:12;;;;;;;17.47;11.83;;;;;;;4.10;85.62;100749.45;1613735;87;21119;-73
2022/01/17 00:02:41;;;;;;;20.23;13.53;;;;;;;4.11;85.62;100747.72;1613506;88;21066;-75
2022/01/17 00:05:10;;;;;;;21.73;13.67;;;;;;;4.11;85.67;100736.89;1613857;89;21166;-73
2022/01/17 00:07:37;;;;;;;23.47;15.63;;;;;;;4.10;85.73;100734.30;1613668;88;21768;-73
2022/01/17 00:10:07;;;;;;;19.53;14.10;;;;;;;4.09;85.71;100723.50;1613617;89;21076;-75
2022/01/17 00:12:37;;;;;;;20.82;14.03;;;;;;;4.07;85.67;100722.64;1614020;89;21516;-74
2022/01/17 00:15:13;;;;;;;17.77;11.90;;;;;;;4.08;85.52;100730.43;1613705;89;21071;-73
2022/01/17 00:17:38;;;;;;;17.93;12.57;;;;;;;4.11;85.39;100714.84;1614844;87;21263;-76
2022/01/17 00:20:10;;;;;;;20.37;13.70;;;;;;;4.13;85.37;100712.23;1613552;88;21310;-73
2022/01/17 00:22:39;;;;;;;17.67;13.37;;;;;;;4.12;85.43;100710.08;1613765;89;21397;-73
2022/01/17 00:25:07;;;;;;;20.10;14.10;;;;;;;4.11;85.53;100706.20;1613622;89;21039;-74
2022/01/17 00:27:35;;;;;;;19.67;13.67;;;;;;;4.11;85.53;100719.18;1613862;89;21515;-73
2022/01/17 00:30:04;;;;;;;21.70;13.70;;;;;;;4.09;85.52;100711.39;1613636;87;21618;-73
2022/01/17 00:32:31;;;;;;;15.90;12.17;;;;;;;4.12;85.32;100700.99;1613603;89;21811;-73
2022/01/17 00:34:58;;;;;;;17.40;12.57;;;;;;;4.14;85.21;100716.56;1613554;89;21059;-73
2022/01/17 00:37:25;;;;;;;19.37;13.27;;;;;;;4.10;85.23;100702.76;1613721;89;21062;-73
2022/01/17 00:39:53;;;;;;;19.17;13.10;;;;;;;4.09;85.43;100691.08;1613696;87;21023;-76
2022/01/17 00:42:20;;;;;;;18.13;13.10;;;;;;;4.06;85.41;100698.88;1613737;89;21596;-74
2022/01/17 00:44:48;;;;;;;18.67;12.40;;;;;;;4.08;85.34;100702.34;1613682;87;21973;-77
2022/01/17 00:47:15;;;;;;;18.30;11.50;;;;;;;4.07;85.30;100702.75;1613899;89;21031;-74
2022/01/17 00:49:42;;;;;;;18.00;11.73;;;;;;;4.10;85.26;100699.28;1613582;88;21062;-73
2022/01/17 00:52:09;;;;;;;19.60;12.40;;;;;;;4.11;85.26;100695.83;1613846;89;21063;-73
2022/01/17 00:54:36;;;;;;;18.33;13.00;;;;;;;4.11;85.37;100703.62;1613662;87;21042;-74
2022/01/17 00:57:04;;;;;;;18.90;12.63;;;;;;;4.09;85.30;100688.05;1613847;89;21099;-77
2022/01/17 00:59:32;;;;;;;17.00;11.53;;;;;;;4.09;85.30;100691.94;1613566;88;21050;-74
2022/01/17 01:01:59;;;;;;;17.33;11.47;;;;;;;4.14;85.27;100695.81;1613848;89;21395;-75
2022/01/17 01:04:26;;;;;;;17.80;11.63;;;;;;;4.14;85.15;100694.52;1613678;89;21023;-73
2022/01/17 01:06:54;;;;;;;17.03;10.90;;;;;;;4.13;85.13;100681.98;1613920;89;21054;-75
2022/01/17 01:09:21;;;;;;;17.37;11.70;;;;;;;4.14;85.09;100684.99;1613662;87;21110;-73
2022/01/17 01:11:48;;;;;;;17.33;12.00;;;;;;;4.12;85.21;100680.24;1613501;88;21062;-73
2022/01/17 01:14:14;;;;;;;16.47;11.07;;;;;;;4.12;85.14;100689.32;1613475;89;21034;-74
2022/01/17 01:16:43;;;;;;;17.93;11.70;;;;;;;4.13;85.27;100695.36;1613563;88;21066;-74
2022/01/17 01:22:01;;;;;;;17.97;11.33;;;;;;;4.11;85.14;100693.23;1591234;89;21177;-74
2022/01/17 01:28:05;;;;;;;16.10;11.47;;;;;;;4.10;85.21;100680.70;1613655;88;21099;-73
2022/01/17 01:29:47;;;;;;;18.03;12.00;;;;;;;4.07;85.41;100669.03;1615653;87;21051;-74
2022/01/17 01:32:18;;;;;;;18.30;12.80;;;;;;;4.08;85.50;100664.73;1613673;88;21143;-73
2022/01/17 01:34:47;;;;;;;19.17;11.43;;;;;;;4.09;85.59;100665.99;1614158;87;21128;-73
2022/01/17 01:37:12;;;;;;;17.10;10.97;;;;;;;4.13;85.57;100654.75;1613565;88;21452;-73
2022/01/17 01:39:39;;;;;;;15.17;10.40;;;;;;;4.16;85.34;100649.97;1613571;89;21094;-73
2022/01/17 01:42:17;;;;;;;15.13;10.07;;;;;;;4.17;85.34;100662.92;1613710;89;21036;-74
2022/01/17 01:44:43;;;;;;;15.67;11.43;;;;;;;4.15;85.43;100647.79;1613800;87;21060;-73
2022/01/17 01:47:10;;;;;;;16.93;11.67;;;;;;;4.14;85.55;100642.62;1613855;87;21129;-74
2022/01/17 01:49:37;;;;;;;13.77;10.23;;;;;;;4.13;85.57;100641.77;1613523;89;21078;-73
2022/01/17 01:52:04;;;;;;;15.77;9.90;;;;;;;4.16;85.50;100620.99;1613671;89;21075;-76
2022/01/17 01:54:31;;;;;;;17.00;10.33;;;;;;;4.17;85.44;100618.81;1613620;89;21039;-73
2022/01/17 01:56:59;;;;;;;14.90;10.47;;;;;;;4.16;85.47;100633.11;1613812;88;21030;-74
2022/01/17 01:59:26;;;;;;;14.53;11.73;;;;;;;4.17;85.51;100608.88;1608660;89;21144;-73
2022/01/17 02:01:52;;;;;;;15.63;11.83;;;;;;;4.17;85.56;100601.95;1631424;88;21028;-73
2022/01/17 02:04:19;;;;;;;17.57;12.50;;;;;;;4.15;85.71;100604.13;1631378;88;21090;-73
2022/01/17 02:06:47;;;;;;;16.90;10.70;;;;;;;4.12;85.79;100602.86;1631542;88;20948;-74
2022/01/17 02:09:14;;;;;;;15.37;10.93;;;;;;;4.14;85.76;100596.79;1631464;88;21516;-75
2022/01/17 02:11:41;;;;;;;14.70;10.30;;;;;;;4.15;85.68;100595.05;1631231;88;21204;-74
2022/01/17 02:14:08;;;;;;;15.77;10.43;;;;;;;4.15;85.82;100580.34;1631410;88;21048;-73
2022/01/17 02:16:37;;;;;;;16.00;11.50;;;;;;;4.15;85.87;100579.48;1631535;88;21513;-73
2022/01/17 02:19:04;;;;;;;17.13;12.10;;;;;;;4.12;86.08;100575.18;1631549;88;21059;-74
2022/01/17 02:21:33;;;;;;;15.13;10.60;;;;;;;4.12;86.18;100594.64;1631324;88;21071;-75
2022/01/17 02:24:01;;;;;;;16.33;11.00;;;;;;;4.13;86.16;100597.67;1631387;88;21324;-73
2022/01/17 02:26:29;;;;;;;18.23;11.60;;;;;;;4.14;86.06;100573.44;1631292;88;21032;-73
2022/01/17 02:28:57;;;;;;;16.60;12.10;;;;;;;4.14;86.12;100563.06;1631357;88;21445;-74
2022/01/17 02:31:26;;;;;;;17.80;11.60;;;;;;;4.10;86.27;100567.88;1631409;88;21011;-73
2022/01/17 02:33:53;;;;;;;19.37;12.30;;;;;;;4.09;86.37;100582.98;1631406;88;21054;-73
2022/01/17 02:36:24;;;;;;;17.00;10.83;;;;;;;4.12;86.31;100573.88;1631656;88;21187;-73
2022/01/17 02:38:51;;;;;;;15.00;10.60;;;;;;;4.15;86.25;100558.73;1631304;88;21597;-74
2022/01/17 02:41:18;;;;;;;16.73;11.30;;;;;;;4.17;86.21;100557.84;1631618;88;21102;-73
2022/01/17 02:43:47;;;;;;;18.20;11.70;;;;;;;4.18;86.38;100553.52;1631356;88;21055;-74
2022/01/17 02:48:42;;;;;;;18.53;11.00;;;;;;;4.21;86.48;100563.45;1631310;88;21143;-74
2022/01/17 02:51:11;;;;;;;18.13;11.20;;;;;;;4.27;86.35;100549.56;1631641;88;21051;-73
2022/01/17 02:53:40;;;;;;;16.30;11.00;;;;;;;4.32;86.18;100535.23;1631216;88;21020;-74
2022/01/17 02:56:09;;;;;;;15.67;11.73;;;;;;;4.31;86.25;100544.76;1631672;88;20944;-73
2022/01/17 02:58:38;;;;;;;19.50;11.83;;;;;;;4.32;86.30;100530.89;1631280;88;21074;-74
2022/01/17 03:01:09;;;;;;;16.67;10.90;;;;;;;4.31;86.29;100545.20;1631427;88;21815;-76
2022/01/17 03:03:37;;;;;;;14.90;10.10;;;;;;;4.35;86.15;100537.38;1630567;88;21482;-74
2022/01/17 03:06:04;;;;;;;14.37;9.83;;;;;;;4.39;86.04;100544.25;1631480;88;21015;-73
2022/01/17 03:08:34;;;;;;;17.57;10.77;;;;;;;4.42;86.00;100536.88;1613536;88;21058;-74
2022/01/17 03:11:05;;;;;;;19.20;11.37;;;;;;;4.40;86.14;100530.83;1613447;87;21035;-73
2022/01/17 03:13:37;;;;;;;18.53;10.93;;;;;;;4.39;86.22;100528.68;1613540;89;21742;-73
2022/01/17 03:16:10;;;;;;;21.30;11.90;;;;;;;4.39;86.22;100535.61;1613348;87;21026;-75
2022/01/17 03:18:41;;;;;;;17.17;10.30;;;;;;;4.43;86.08;100534.28;1608559;89;21066;-75
2022/01/17 03:21:10;;;;;;;17.10;11.57;;;;;;;4.45;85.98;100526.02;1608430;89;21119;-74
2022/01/17 03:23:40;;;;;;;17.27;11.78;;;;;;;4.45;86.08;100518.23;1631411;88;21075;-74
2022/01/17 03:26:08;;;;;;;17.80;11.93;;;;;;;4.44;86.15;100499.66;1631514;88;21560;-73
2022/01/17 03:28:36;;;;;;;17.13;10.63;;;;;;;4.45;86.17;100498.77;1631329;88;21037;-74
2022/01/17 03:31:05;;;;;;;19.20;11.20;;;;;;;4.49;86.01;100494.42;1631342;88;21575;-74
2022/01/17 03:33:32;;;;;;;16.07;10.90;;;;;;;4.52;85.90;100484.01;1631265;88;21063;-74
2022/01/17 03:36:00;;;;;;;15.80;11.00;;;;;;;4.53;85.83;100466.69;1631305;88;21062;-75
2022/01/17 03:38:30;;;;;;;18.23;11.83;;;;;;;4.50;85.98;100487.05;1631307;88;21146;-74
2022/01/17 03:40:59;;;;;;;21.10;11.48;;;;;;;4.49;86.03;100474.95;1631437;88;21075;-73
2022/01/17 03:43:27;;;;;;;16.27;10.77;;;;;;;4.50;86.00;100471.91;1631613;88;21035;-74
2022/01/17 03:45:57;;;;;;;18.47;10.77;;;;;;;4.54;85.82;100482.67;1631524;88;21044;-73
2022/01/17 03:48:24;;;;;;;17.10;10.17;;;;;;;4.54;85.75;100477.48;1631649;88;21051;-75
2022/01/17 03:50:51;;;;;;;16.83;10.27;;;;;;;4.57;85.71;100461.87;1631851;88;21118;-74
2022/01/17 03:53:18;;;;;;;15.97;11.03;;;;;;;4.57;85.82;100464.47;1631549;88;21062;-73
2022/01/17 03:55:45;;;;;;;14.17;9.73;;;;;;;4.57;85.82;100448.89;1631497;88;21156;-74
2022/01/17 03:58:12;;;;;;;16.77;9.80;;;;;;;4.59;85.75;100449.73;1614069;89;21058;-73
2022/01/17 04:00:45;;;;;;;14.47;9.20;;;;;;;4.62;85.52;100464.83;1613601;89;21062;-74
2022/01/17 04:03:12;;;;;;;16.27;8.63;;;;;;;4.63;85.48;100454.03;1613702;89;21135;-74
2022/01/17 04:05:39;;;;;;;16.07;8.93;;;;;;;4.62;85.40;100450.55;1613801;88;21075;-74
2022/01/17 04:08:07;;;;;;;12.70;7.77;;;;;;;4.60;85.39;100459.23;1608717;89;21039;-74
2022/01/17 04:10:34;;;;;;;13.10;8.33;;;;;;;4.58;85.53;100460.56;1613825;87;21038;-74
2022/01/17 04:13:04;;;;;;;13.63;8.03;;;;;;;4.59;85.50;100432.87;1613636;89;21061;-74
2022/01/17 04:15:35;;;;;;;12.83;7.37;;;;;;;4.61;85.30;100438.46;1608537;89;21166;-74
2022/01/17 04:18:08;;;;;;;12.40;7.00;;;;;;;4.64;85.19;100425.88;1613601;89;21015;-74
2022/01/17 04:20:37;;;;;;;11.73;6.80;;;;;;;4.67;85.08;100431.89;1613630;89;21349;-73
2022/01/17 04:23:08;;;;;;;10.13;7.00;;;;;;;4.67;85.13;100426.70;1608746;89;21075;-73
2022/01/17 04:25:38;;;;;;;13.93;7.93;;;;;;;4.67;85.15;100432.34;1613706;87;21085;-74
2022/01/17 04:28:09;;;;;;;12.25;7.08;;;;;;;4.68;85.10;100445.31;1613780;89;21567;-73
2022/01/17 04:30:38;;;;;;;10.53;6.90;;;;;;;4.69;85.03;100439.23;1586931;90;21507;-74
2022/01/17 04:33:06;;;;;;;11.60;7.10;;;;;;;4.75;84.75;100430.95;1613654;89;21084;-73
2022/01/17 04:35:35;;;;;;;11.03;6.73;;;;;;;4.79;84.61;100445.15;1608734;87;21055;-76
2022/01/17 04:38:07;;;;;;;10.30;6.70;;;;;;;4.78;84.60;100447.34;1613609;89;21037;-74
2022/01/17 04:40:37;;;;;;;12.10;7.30;;;;;;;4.78;84.60;100432.20;1613776;89;21806;-73
2022/01/17 04:43:13;;;;;;;;;;;;;;;4.80;84.57;100447.34;1589225;90;21082;-73
2022/01/17 04:45:35;;;;;;;12.73;6.43;;;;;;;4.81;84.30;100446.45;1607904;89;20222;-74
2022/01/17 04:48:03;;;;;;;9.27;5.77;;;;;;;4.86;84.07;100449.40;1613552;89;21031;-74
2022/01/17 04:50:30;;;;;;;12.20;6.13;;;;;;;4.88;84.00;100450.70;1613980;89;21123;-76
2022/01/17 04:53:00;;;;;;;15.63;7.23;;;;;;;4.85;84.03;100442.50;1613618;89;21308;-73
2022/01/17 04:55:28;;;;;;;14.67;7.50;;;;;;;4.83;84.03;100417.42;1613812;87;21531;-74
2022/01/17 04:57:58;;;;;;;10.77;6.50;;;;;;;4.81;84.03;100430.86;1613488;89;21449;-74
2022/01/17 05:00:26;;;;;;;;;;;;;;;4.83;83.84;100423.92;1616125;89;21086;-73
2022/01/17 05:02:54;;;;;;;11.37;6.07;;;;;;;4.86;83.76;100423.43;1613498;89;20507;-73
2022/01/17 05:05:21;;;;;;;13.07;7.13;;;;;;;4.87;83.81;100433.37;1613715;89;21054;-75
2022/01/17 05:07:48;;;;;;;12.37;7.17;;;;;;;4.84;83.95;100434.72;1608511;89;21092;-74
2022/01/17 05:10:18;;;;;;;14.00;7.83;;;;;;;4.81;83.97;100447.30;1613625;88;21098;-74
2022/01/17 05:12:45;;;;;;;13.33;6.53;;;;;;;4.79;84.06;100450.34;1613510;89;21078;-74
2022/01/17 05:15:29;;;;;;;10.13;6.00;;;;;;;4.78;83.90;100464.66;1613494;89;21071;-74
2022/01/17 05:20:25;;;;;;;11.47;6.77;;;;;;;4.73;83.95;100445.23;1529270;93;21096;-75
2022/01/17 05:22:53;;;;;;;11.43;7.33;;;;;;;4.72;84.15;100443.53;1640711;87;21028;-73
2022/01/17 05:25:21;;;;;;;15.50;7.50;;;;;;;4.71;84.25;100452.17;1640792;87;21084;-74
2022/01/17 05:27:48;;;;;;;12.57;6.80;;;;;;;4.69;84.26;100457.41;1640560;86;21314;-74
2022/01/17 05:30:18;;;;;;;10.17;6.50;;;;;;;4.72;84.23;100456.95;1640697;86;21148;-74
2022/01/17 05:32:46;;;;;;;14.07;6.83;;;;;;;4.73;84.17;100462.55;1640708;87;21039;-73
2022/01/17 05:35:14;;;;;;;12.63;6.83;;;;;;;4.71;84.24;100463.86;1640649;86;21095;-74
2022/01/17 05:37:42;;;;;;;14.23;7.10;;;;;;;4.72;84.24;100477.28;1640654;87;21043;-73
2022/01/17 05:40:13;;;;;;;11.20;6.47;;;;;;;4.72;84.33;100464.30;1640819;87;21068;-73
2022/01/17 05:42:41;;;;;;;10.30;6.57;;;;;;;4.70;84.36;100460.41;1640654;87;21835;-73
2022/01/17 05:45:10;;;;;;;10.83;6.20;;;;;;;4.71;84.35;100458.66;1640654;87;20983;-73
2022/01/17 05:47:37;;;;;;;8.43;5.13;;;;;;;4.74;84.26;100455.17;1640722;87;21055;-73
2022/01/17 05:50:06;;;;;;;8.63;4.97;;;;;;;4.79;84.13;100444.30;1640696;87;21075;-73
2022/01/17 05:52:33;;;;;;;10.73;4.90;;;;;;;4.81;84.09;100426.52;1640786;87;21056;-74
2022/01/17 05:55:02;;;;;;;9.77;6.00;;;;;;;4.82;84.18;100438.65;1640735;87;21110;-73
2022/01/17 05:57:29;;;;;;;10.13;5.70;;;;;;;4.82;84.15;100415.69;1640718;87;21024;-74
2022/01/17 05:59:58;;;;;;;10.20;4.80;;;;;;;4.80;84.05;100404.48;1640823;87;21028;-74
2022/01/17 06:02:25;;;;;;;6.57;4.37;;;;;;;4.80;83.83;100412.28;1640734;87;21043;-73
2022/01/17 06:04:52;;;;;;;8.03;4.07;;;;;;;4.79;83.76;100390.62;1640594;86;21016;-73
2022/01/17 06:07:19;;;;;;;7.97;3.90;;;;;;;4.77;83.72;100395.00;1640755;87;21158;-73
2022/01/17 06:09:47;;;;;;;8.27;4.17;;;;;;;4.73;83.81;100382.06;1640622;87;20940;-75
2022/01/17 06:12:14;;;;;;;9.70;4.70;;;;;;;4.67;83.79;100372.17;1640630;87;21496;-74
2022/01/17 06:14:41;;;;;;;10.53;3.80;;;;;;;4.64;83.92;100367.03;1640774;87;20908;-73
2022/01/17 06:17:08;;;;;;;5.93;3.10;;;;;;;4.66;83.72;100348.84;1640709;85;21167;-73
2022/01/17 06:19:35;;;;;;;5.73;3.17;;;;;;;4.67;83.59;100346.21;1640949;87;21043;-75
2022/01/17 06:22:03;;;;;;;9.73;4.00;;;;;;;4.66;83.67;100334.57;1640761;87;21044;-73
2022/01/17 06:24:31;;;;;;;7.03;3.10;;;;;;;4.63;83.74;100328.98;1640941;87;21087;-73
2022/01/17 06:27:02;;;;;;;5.90;2.93;;;;;;;4.62;83.57;100320.75;1640646;87;21000;-74
2022/01/17 06:29:29;;;;;;;5.67;2.60;;;;;;;4.62;83.63;100334.17;1640989;87;21106;-73
2022/01/17 06:31:56;;;;;;;5.47;2.30;;;;;;;4.66;83.37;100344.95;1640695;87;21490;-76
2022/01/17 06:34:24;;;;;;;6.87;2.60;;;;;;;4.69;83.24;100338.42;1640990;87;21031;-73
2022/01/17 06:36:52;;;;;;;5.80;3.00;;;;;;;4.69;83.14;100331.48;1640787;87;20940;-74
2022/01/17 06:39:19;;;;;;;4.63;2.73;;;;;;;4.71;83.37;100300.28;1640780;86;21127;-74
2022/01/17 06:41:46;;;;;;;6.40;2.60;;;;;;;4.69;83.37;100284.75;1640675;87;21592;-74
2022/01/17 06:44:13;;;;;;;5.40;2.57;;;;;;;4.67;83.10;100295.59;1640710;87;21152;-74
2022/01/17 06:46:41;;;;;;;6.43;2.83;;;;;;;4.66;83.01;100266.63;1640582;87;21052;-74
2022/01/17 06:49:09;;;;;;;5.07;2.50;;;;;;;4.62;83.24;100245.91;1640832;86;21146;-74
2022/01/17 06:51:36;;;;;;;4.90;2.60;;;;;;;4.56;83.11;100237.78;1640589;87;21051;-74
2022/01/17 06:54:03;;;;;;;4.67;1.90;;;;;;;4.57;83.21;100257.69;1640953;87;21083;-74
2022/01/17 06:56:30;;;;;;;3.17;1.63;;;;;;;4.59;83.12;100240.33;1640589;87;21095;-74
2022/01/17 06:58:57;;;;;;;5.87;1.73;;;;;;;4.61;82.95;100213.91;1640847;85;21035;-74
2022/01/17 07:01:24;;;;;;;4.30;1.70;;;;;;;4.58;83.09;100217.86;1640708;87;21587;-74
2022/01/17 07:03:52;;;;;;;4.60;2.10;;;;;;;4.54;83.18;100223.95;1640797;87;21063;-74
2022/01/17 07:06:19;;;;;;;4.17;1.20;;;;;;;4.51;83.21;100227.90;1640563;86;21141;-74
2022/01/17 07:08:46;;;;;;;3.60;1.23;;;;;;;4.55;83.12;100270.27;1640826;87;21128;-74
2022/01/17 07:11:14;;;;;;;3.47;1.30;;;;;;;4.54;83.01;100277.61;1640585;86;21054;-74
2022/01/17 07:13:41;;;;;;;2.93;1.27;;;;;;;4.45;83.16;100278.16;1640831;86;21456;-74
2022/01/17 07:16:08;;;;;;;5.80;2.40;;;;;;;4.38;83.37;100262.69;1640663;86;21115;-74
2022/01/17 07:18:35;;;;;;;3.33;1.20;;;;;;;4.32;83.57;100275.75;1640852;86;21031;-74
2022/01/17 07:21:02;;;;;;;2.43;1.20;;;;;;;4.33;83.53;100289.16;1640631;87;21141;-74
2022/01/17 07:23:30;;;;;;;2.83;1.23;;;;;;;4.31;83.69;100294.36;1640697;87;21058;-74
2022/01/17 07:25:58;;;;;;;3.83;1.40;;;;;;;4.29;83.87;100306.48;1640571;85;21126;-73
2022/01/17 07:28:25;;;;;;;4.07;1.63;;;;;;;4.26;84.11;100296.16;1640899;87;20999;-74
2022/01/17 07:30:52;;;;;;;3.23;0.97;;;;;;;4.24;84.26;100279.77;1640561;87;21070;-74
2022/01/17 07:33:21;;;;;;;3.70;1.40;;;;;;;4.25;84.18;100262.02;1640881;87;21083;-74
2022/01/17 07:35:48;;;;;;;3.50;1.40;;;;;;;4.27;84.32;100233.03;1640688;87;22042;-75
2022/01/17 07:38:16;;;;;;;3.23;1.30;;;;;;;4.24;84.60;100216.20;1640480;86;21092;-75
2022/01/17 07:40:43;;;;;;;2.80;1.37;;;;;;;4.17;84.84;100195.96;1640733;86;21039;-74
2022/01/17 07:43:11;;;;;;;3.40;1.00;;;;;;;4.15;85.08;100201.60;1640792;87;21102;-74
2022/01/17 07:45:56;;;;;;;2.10;0.80;;;;;;;4.16;85.13;100197.30;1640532;87;21146;-74
2022/01/17 07:50:49;;;;;;;2.63;1.07;;;;;;;4.20;85.21;100197.21;1629366;87;21305;-74
2022/01/17 07:53:16;;;;;;;3.13;1.20;;;;;;;4.18;85.43;100230.09;1640713;87;21008;-74
2022/01/17 07:55:43;;;;;;;2.90;1.10;;;;;;;4.17;85.64;100226.23;1640827;87;21090;-73
2022/01/17 07:58:10;;;;;;;2.67;1.00;;;;;;;4.20;85.79;100259.92;1640520;87;21136;-74
2022/01/17 08:00:37;;;;;;;4.63;0.93;;;;;;;4.23;85.66;100224.41;1640827;87;21545;-75
2022/01/17 08:03:06;;;;;;;3.10;1.00;;;;;;;4.24;85.63;100203.23;1640552;87;21008;-75
2022/01/17 08:05:34;;;;;;;5.43;1.10;;;;;;;4.24;85.74;100188.52;1640672;86;21078;-73
2022/01/17 08:08:02;;;;;;;3.80;1.03;;;;;;;4.24;85.81;100174.70;1640654;86;21058;-75
2022/01/17 08:10:30;;;;;;;2.10;0.77;;;;;;;4.25;85.89;100164.73;1640979;86;21047;-74
2022/01/17 08:12:59;;;;;;;3.70;0.93;;;;;;;4.27;85.85;100137.45;1640525;86;21325;-74
2022/01/17 08:15:27;;;;;;;3.67;1.23;;;;;;;4.31;85.76;100130.90;1640887;87;21553;-73
2022/01/17 08:17:54;;;;;;;3.23;0.90;;;;;;;4.36;85.80;100116.56;1640532;87;21035;-74
2022/01/17 08:20:21;;;;;;;3.50;1.00;;;;;;;4.40;85.77;100128.14;1640935;87;21051;-73
2022/01/17 08:22:48;;;;;;;3.07;1.17;;;;;;;4.41;85.80;100109.13;1640594;86;21302;-73
2022/01/17 08:25:17;;;;;;;5.80;1.20;;;;;;;4.46;85.78;100125.89;1640939;85;21043;-73
2022/01/17 08:27:44;;;;;;;6.67;1.27;;;;;;;4.51;85.63;100105.91;1640838;86;21059;-73
2022/01/17 08:30:12;;;;;;;6.07;1.20;;;;;;;4.57;85.33;100097.16;1640768;87;21472;-74
2022/01/17 08:32:38;;;;;;;3.33;0.97;;;;;;;4.61;85.20;100111.37;1640969;87;21027;-73
2022/01/17 08:35:07;;;;;;;3.03;0.93;;;;;;;4.64;85.10;100093.59;1640717;87;21138;-74
2022/01/17 08:37:34;;;;;;;2.73;1.07;;;;;;;4.66;85.06;100096.58;1640887;87;21083;-73
2022/01/17 08:40:03;;;;;;;4.30;0.90;;;;;;;4.68;85.02;100111.70;1640765;87;21082;-74
2022/01/17 08:42:33;;;;;;;4.60;1.33;;;;;;;4.71;85.04;100089.98;1640967;87;21046;-73
2022/01/17 08:45:00;;;;;;;4.62;1.85;;;;;;;4.73;84.92;100095.16;1640810;85;21556;-75
2022/01/17 08:47:27;;;;;;;4.77;1.47;;;;;;;4.79;84.74;100102.84;1640685;87;21304;-74
2022/01/17 08:49:55;;;;;;;4.80;2.60;;;;;;;4.81;84.70;100103.23;1640955;87;21004;-74
2022/01/17 08:52:23;;;;;;;2.30;0.70;;;;;;;4.88;84.55;100118.27;1640890;86;21063;-74
2022/01/17 08:54:50;;;;;;;2.43;0.87;;;;;;;4.94;84.69;100086.98;1640758;86;20987;-75
2022/01/17 08:57:17;;;;;;;7.17;1.00;;;;;;;4.97;84.70;100085.63;1640918;87;21335;-74
2022/01/17 08:59:45;;;;;;;2.87;0.80;;;;;;;5.00;84.50;100070.42;1640925;87;21189;-74
2022/01/17 09:02:13;;;;;;;3.33;1.20;;;;;;;5.06;84.35;100056.86;1640733;86;21056;-73
2022/01/17 09:04:43;;;;;;;4.57;1.23;;;;;;;5.13;84.08;100086.20;1640918;86;21058;-75
2022/01/17 09:07:12;;;;;;;3.20;0.68;;;;;;;5.14;84.12;100050.22;1640961;87;21023;-74
2022/01/17 09:09:41;;;;;;;3.10;0.87;;;;;;;5.20;84.06;100056.59;1640990;87;21159;-73
2022/01/17 09:12:11;;;;;;;3.40;0.90;;;;;;;5.25;83.90;100058.65;1640640;86;21143;-76
2022/01/17 09:14:38;;;;;;;4.22;1.10;;;;;;;5.28;83.43;100061.19;1640961;87;21181;-74
2022/01/17 09:17:08;;;;;;;3.07;0.90;;;;;;;5.30;83.62;100081.50;1640888;85;21528;-73
2022/01/17 09:19:38;;;;;;;4.08;0.98;;;;;;;5.30;83.59;100046.87;1640891;87;21051;-73
2022/01/17 09:22:06;;;;;;;;;;;;;;;5.29;83.47;100060.73;1643402;87;21580;-74
2022/01/17 09:24:35;;;;;;;4.23;1.40;;;;;;;5.27;83.69;100054.28;1640635;87;21227;-73
2022/01/17 09:27:05;;;;;;;3.53;0.70;;;;;;;5.27;83.52;100083.32;1640881;85;21063;-74
2022/01/17 09:29:33;;;;;;;0.88;0.53;;;;;;;5.32;83.52;100084.05;1640829;87;21020;-74
2022/01/17 09:32:00;;;;;;;2.03;0.90;;;;;;;5.33;83.62;100068.44;1640605;87;21603;-74
2022/01/17 09:34:27;;;;;;;2.90;0.83;;;;;;;5.31;83.65;100068.06;1640713;86;21111;-74
2022/01/17 09:36:55;;;;;;;3.67;0.60;;;;;;;5.28;83.67;100081.97;1640831;87;21219;-74
2022/01/17 09:39:22;;;;;;;2.10;0.67;;;;;;;5.28;83.68;100101.46;1640630;86;21047;-75
2022/01/17 09:41:49;;;;;;;3.97;1.03;;;;;;;5.29;83.72;100064.22;1640970;86;21023;-74
2022/01/17 09:44:16;;;;;;;3.37;0.70;;;;;;;5.26;83.93;100044.76;1640781;87;21527;-75
2022/01/17 09:46:47;;;;;;;3.23;0.90;;;;;;;5.23;84.20;100085.55;1640949;87;21082;-75
2022/01/17 09:52:25;;;;;;;1.20;0.50;;;;;;;5.11;84.48;100083.61;1640987;87;21021;-75
2022/01/17 09:54:36;;;;;;;2.23;0.87;;;;;;;5.06;84.67;100052.12;1637318;86;21478;-75
2022/01/17 09:57:08;;;;;;;;;;;;;;;4.95;84.91;100060.56;1643380;87;21075;-75
2022/01/17 09:59:39;;;;;;;1.83;0.67;;;;;;;4.85;85.25;100067.66;1640581;87;21433;-75
2022/01/17 10:02:07;;;;;;;5.17;0.80;;;;;;;4.80;85.40;100074.70;1640947;85;21540;-75
2022/01/17 10:04:36;;;;;;;2.60;0.77;;;;;;;4.79;85.62;100064.73;1640570;87;21040;-75
2022/01/17 10:07:05;;;;;;;2.00;0.70;;;;;;;4.75;85.76;100079.12;1640632;87;21035;-75
2022/01/17 10:09:35;;;;;;;3.00;1.00;;;;;;;4.73;86.08;100061.41;1640751;87;21059;-75
2022/01/17 10:12:15;;;;;;;3.10;0.80;;;;;;;4.72;86.34;100053.22;1640600;87;21131;-76
2022/01/17 10:15:01;;;;;;;2.27;0.93;;;;;;;4.69;86.73;100051.53;1640669;85;21160;-76
2022/01/17 10:17:47;;;;;;;3.80;1.10;;;;;;;4.67;86.88;100029.48;1640690;87;21592;-76
2022/01/17 10:20:17;;;;;;;4.37;1.00;;;;;;;4.68;87.02;100082.25;1640602;86;21492;-76
2022/01/17 10:22:52;;;;;;;2.30;1.03;;;;;;;4.68;87.05;100071.45;1640783;86;21101;-76
2022/01/17 10:25:41;;;;;;;2.60;0.73;;;;;;;4.70;87.25;100048.89;1640727;86;21056;-75
2022/01/17 10:29:13;;;;;;;3.43;0.80;;;;;;;4.73;87.73;100053.63;1640709;86;21224;-75
2022/01/17 10:31:04;;;;;;;4.43;0.80;;;;;;;4.76;87.86;100045.77;1633458;87;21509;-76
2022/01/17 10:35:59;;;;;;;3.53;1.33;;;;;;;4.79;87.89;100075.57;1640734;86;22059;-76
2022/01/17 10:38:28;;;;;;;4.90;1.63;;;;;;;4.77;87.96;100117.61;1640785;87;21517;-77
2022/01/17 10:40:59;;;;;;;9.63;1.57;;;;;;;4.75;88.18;100168.25;1640637;86;21091;-76
2022/01/17 10:43:35;;;;;;;13.70;5.53;;;;;;;4.72;88.34;100254.44;1640758;87;21008;-75
2022/01/17 10:46:12;;;;;;;6.30;2.70;;;;;;;4.59;87.53;100284.45;1640405;87;21055;-75
2022/01/17 10:48:43;;;;;;;16.27;5.87;;;;;;;4.29;86.56;100302.59;1640657;87;21080;-75
2022/01/17 10:51:13;;;;;;;4.53;2.13;;;;;;;3.98;86.33;100289.16;1640625;86;21063;-76
2022/01/17 10:53:41;;;;;;;5.08;2.20;;;;;;;3.68;86.43;100323.61;1640929;87;21117;-74
2022/01/17 10:56:12;;;;;;;5.30;2.57;;;;;;;3.47;86.55;100328.58;1640531;87;21549;-75
2022/01/17 10:58:41;;;;;;;8.30;2.07;;;;;;;3.30;86.58;100341.68;1640744;87;21035;-75
2022/01/17 11:01:13;;;;;;;3.80;1.40;;;;;;;3.13;86.59;100326.69;1640809;87;21521;-74
2022/01/17 11:03:44;;;;;;;8.90;3.00;;;;;;;2.98;86.80;100335.88;1640596;87;21099;-75
2022/01/17 11:06:21;;;;;;;6.03;2.50;;;;;;;2.88;86.94;100346.72;1640550;87;21148;-74
2022/01/17 11:08:50;;;;;;;3.87;2.10;;;;;;;2.79;87.05;100332.55;1640715;86;20943;-74
2022/01/17 11:11:22;;;;;;;3.73;2.27;;;;;;;2.77;87.40;100340.34;1640884;86;21031;-74
2022/01/17 11:13:50;;;;;;;2.50;1.17;;;;;;;2.75;87.65;100344.66;1640853;87;20947;-77
2022/01/17 11:16:21;;;;;;;6.10;1.93;;;;;;;2.75;87.94;100358.05;1640575;87;21059;-74
2022/01/17 11:18:59;;;;;;;5.25;2.20;;;;;;;2.73;88.07;100377.89;1640992;85;21125;-73
2022/01/17 11:21:21;;;;;;;11.83;3.73;;;;;;;2.71;88.26;100397.73;1640734;86;21098;-73
2022/01/17 11:23:49;;;;;;;15.70;5.33;;;;;;;2.71;88.35;100420.59;1640880;87;21008;-74
2022/01/17 11:26:17;;;;;;;3.23;1.13;;;;;;;2.73;88.38;100434.83;1640522;87;21075;-74
2022/01/17 11:28:47;;;;;;;3.93;1.50;;;;;;;2.72;88.26;100430.09;1640863;87;21012;-74
2022/01/17 11:31:16;;;;;;;3.70;1.30;;;;;;;2.73;88.19;100420.59;1640501;87;21065;-74
2022/01/17 11:33:46;;;;;;;4.33;2.47;;;;;;;2.78;88.38;100410.64;1640779;86;21015;-74
2022/01/17 11:36:14;;;;;;;4.45;1.40;;;;;;;2.86;88.44;100439.94;1640769;86;21114;-78
2022/01/17 11:38:50;;;;;;;2.77;1.27;;;;;;;2.94;88.35;100422.20;1640820;87;21644;-77
2022/01/17 11:41:36;;;;;;;8.73;3.17;;;;;;;2.95;88.12;100416.17;1640551;86;21023;-78
2022/01/17 11:44:07;;;;;;;4.20;1.67;;;;;;;2.92;88.14;100424.81;1640846;86;21136;-74
2022/01/17 11:46:51;;;;;;;5.87;2.13;;;;;;;2.89;88.06;100437.33;1640504;87;21530;-74
2022/01/17 11:49:31;;;;;;;3.63;1.23;;;;;;;2.86;88.12;100442.97;1640517;87;21043;-74
2022/01/17 11:51:56;;;;;;;5.70;1.57;;;;;;;2.83;88.07;100452.05;1640980;86;21047;-77